sensor_id;sensor_type;location;lat;lon;timestamp;temperature;humidity
2907;DHT22;1463;51.070;16.998;2023-07-08T00:01:13;20.50;99.90
2907;DHT22;1463;51.070;16.998;2023-07-08T00:03:42;20.40;99.90
2907;DHT22;1463;51.070;16.998;2023-07-08T00:06:13;20.30;99.90
2907;DHT22;1463;51.070;16.998;2023-07-08T00:08:42;20.30;99.90
2907;DHT22;1463;51.070;16.998;2023-07-08T00:11:11;20.20;99.90
2907;DHT22;1463;51.070;16.998;2023-07-08T00:13:38;20.20;99.90
2907;DHT22;1463;51.070;16.998;2023-07-08T00:16:10;20.20;99.90
2907;DHT22;1463;51.070;16.998;2023-07-08T00:18:38;20.10;99.90
2907;DHT22;1463;51.070;16.998;2023-07-08T00:21:09;20.00;99.90
2907;DHT22;1463;51.070;16.998;2023-07-08T00:23:44;20.00;99.90
2907;DHT22;1463;51.070;16.998;2023-07-08T00:26:17;19.90;99.90
2907;DHT22;1463;51.070;16.998;2023-07-08T00:28:45;20.00;99.90
2907;DHT22;1463;51.070;16.998;2023-07-08T00:31:14;19.90;99.90
2907;DHT22;1463;51.070;16.998;2023-07-08T00:33:42;19.90;99.90
2907;DHT22;1463;51.070;16.998;2023-07-08T00:36:11;19.70;99.90
2907;DHT22;1463;51.070;16.998;2023-07-08T00:38:39;19.70;99.90
2907;DHT22;1463;51.070;16.998;2023-07-08T00:41:14;19.70;99.90
2907;DHT22;1463;51.070;16.998;2023-07-08T00:43:45;19.60;99.90
2907;DHT22;1463;51.070;16.998;2023-07-08T00:46:21;19.70;99.90
2907;DHT22;1463;51.070;16.998;2023-07-08T00:48:55;19.70;99.90
2907;DHT22;1463;51.070;16.998;2023-07-08T00:51:24;19.50;99.90
2907;DHT22;1463;51.070;16.998;2023-07-08T00:53:52;19.50;99.90
2907;DHT22;1463;51.070;16.998;2023-07-08T00:56:23;19.40;99.90
2907;DHT22;1463;51.070;16.998;2023-07-08T00:58:56;19.20;99.90
2907;DHT22;1463;51.070;16.998;2023-07-08T01:01:27;19.20;99.90
2907;DHT22;1463;51.070;16.998;2023-07-08T01:03:59;19.20;99.90
2907;DHT22;1463;51.070;16.998;2023-07-08T01:06:29;19.30;99.90
2907;DHT22;1463;51.070;16.998;2023-07-08T01:09:00;19.30;99.90
2907;DHT22;1463;51.070;16.998;2023-07-08T01:11:29;19.20;99.90
2907;DHT22;1463;51.070;16.998;2023-07-08T01:13:57;19.20;99.90
2907;DHT22;1463;51.070;16.998;2023-07-08T01:16:26;19.30;99.90
2907;DHT22;1463;51.070;16.998;2023-07-08T01:18:54;19.20;99.90
2907;DHT22;1463;51.070;16.998;2023-07-08T01:21:31;19.20;99.90
2907;DHT22;1463;51.070;16.998;2023-07-08T01:24:02;19.20;99.90
2907;DHT22;1463;51.070;16.998;2023-07-08T01:26:31;19.00;99.90
2907;DHT22;1463;51.070;16.998;2023-07-08T01:29:00;18.80;99.90
2907;DHT22;1463;51.070;16.998;2023-07-08T01:31:29;18.70;99.90
2907;DHT22;1463;51.070;16.998;2023-07-08T01:33:56;18.70;99.90
2907;DHT22;1463;51.070;16.998;2023-07-08T01:36:24;18.60;99.90
2907;DHT22;1463;51.070;16.998;2023-07-08T01:38:52;18.70;99.90
2907;DHT22;1463;51.070;16.998;2023-07-08T01:41:21;18.80;99.90
2907;DHT22;1463;51.070;16.998;2023-07-08T01:43:48;18.80;99.90
2907;DHT22;1463;51.070;16.998;2023-07-08T01:46:20;18.80;99.90
2907;DHT22;1463;51.070;16.998;2023-07-08T01:48:52;18.90;99.90
2907;DHT22;1463;51.070;16.998;2023-07-08T01:51:20;18.90;99.90
2907;DHT22;1463;51.070;16.998;2023-07-08T01:53:48;18.80;99.90
2907;DHT22;1463;51.070;16.998;2023-07-08T01:56:16;18.80;99.90
2907;DHT22;1463;51.070;16.998;2023-07-08T01:58:44;18.60;99.90
2907;DHT22;1463;51.070;16.998;2023-07-08T02:01:12;18.60;99.90
2907;DHT22;1463;51.070;16.998;2023-07-08T02:03:39;18.50;99.90
2907;DHT22;1463;51.070;16.998;2023-07-08T02:06:08;18.50;99.90
2907;DHT22;1463;51.070;16.998;2023-07-08T02:08:36;18.40;99.90
2907;DHT22;1463;51.070;16.998;2023-07-08T02:11:03;18.10;99.90
2907;DHT22;1463;51.070;16.998;2023-07-08T02:13:30;18.00;99.90
2907;DHT22;1463;51.070;16.998;2023-07-08T02:15:59;17.90;99.90
2907;DHT22;1463;51.070;16.998;2023-07-08T02:18:27;17.80;99.90
2907;DHT22;1463;51.070;16.998;2023-07-08T02:20:58;17.80;99.90
2907;DHT22;1463;51.070;16.998;2023-07-08T02:23:25;17.70;99.90
2907;DHT22;1463;51.070;16.998;2023-07-08T02:25:54;17.60;99.90
2907;DHT22;1463;51.070;16.998;2023-07-08T02:28:22;17.60;99.90
2907;DHT22;1463;51.070;16.998;2023-07-08T02:30:50;17.60;99.90
2907;DHT22;1463;51.070;16.998;2023-07-08T02:33:18;17.60;99.90
2907;DHT22;1463;51.070;16.998;2023-07-08T02:35:46;17.60;99.90
2907;DHT22;1463;51.070;16.998;2023-07-08T02:38:14;17.60;99.90
2907;DHT22;1463;51.070;16.998;2023-07-08T02:40:42;17.60;99.90
2907;DHT22;1463;51.070;16.998;2023-07-08T02:43:09;17.60;99.90
2907;DHT22;1463;51.070;16.998;2023-07-08T02:45:36;17.70;99.90
2907;DHT22;1463;51.070;16.998;2023-07-08T02:48:04;17.80;99.90
2907;DHT22;1463;51.070;16.998;2023-07-08T02:50:33;17.80;99.90
2907;DHT22;1463;51.070;16.998;2023-07-08T02:53:00;17.80;99.90
2907;DHT22;1463;51.070;16.998;2023-07-08T02:55:28;17.80;99.90
2907;DHT22;1463;51.070;16.998;2023-07-08T02:57:56;17.90;99.90
2907;DHT22;1463;51.070;16.998;2023-07-08T03:00:24;17.90;99.90
2907;DHT22;1463;51.070;16.998;2023-07-08T03:02:51;18.10;99.90
2907;DHT22;1463;51.070;16.998;2023-07-08T03:05:19;18.10;99.90
2907;DHT22;1463;51.070;16.998;2023-07-08T03:07:47;18.20;99.90
2907;DHT22;1463;51.070;16.998;2023-07-08T03:10:15;18.20;99.90
2907;DHT22;1463;51.070;16.998;2023-07-08T03:12:42;18.10;99.90
2907;DHT22;1463;51.070;16.998;2023-07-08T03:15:10;18.10;99.90
2907;DHT22;1463;51.070;16.998;2023-07-08T03:17:38;18.10;99.90
2907;DHT22;1463;51.070;16.998;2023-07-08T03:20:07;18.10;99.90
2907;DHT22;1463;51.070;16.998;2023-07-08T03:22:36;18.20;99.90
2907;DHT22;1463;51.070;16.998;2023-07-08T03:25:06;18.20;99.90
2907;DHT22;1463;51.070;16.998;2023-07-08T03:27:33;18.20;99.90
2907;DHT22;1463;51.070;16.998;2023-07-08T03:30:01;18.30;99.90
2907;DHT22;1463;51.070;16.998;2023-07-08T03:32:30;18.30;99.90
2907;DHT22;1463;51.070;16.998;2023-07-08T03:34:57;18.30;99.90
2907;DHT22;1463;51.070;16.998;2023-07-08T03:37:27;18.10;99.90
2907;DHT22;1463;51.070;16.998;2023-07-08T03:39:54;18.10;99.90
2907;DHT22;1463;51.070;16.998;2023-07-08T03:42:23;18.20;99.90
2907;DHT22;1463;51.070;16.998;2023-07-08T03:44:52;18.20;99.90
2907;DHT22;1463;51.070;16.998;2023-07-08T03:47:19;18.20;99.90
2907;DHT22;1463;51.070;16.998;2023-07-08T03:49:47;18.20;99.90
2907;DHT22;1463;51.070;16.998;2023-07-08T03:52:16;18.20;99.90
2907;DHT22;1463;51.070;16.998;2023-07-08T03:54:44;18.30;99.90
2907;DHT22;1463;51.070;16.998;2023-07-08T03:57:12;18.30;99.90
2907;DHT22;1463;51.070;16.998;2023-07-08T03:59:41;18.30;99.90
2907;DHT22;1463;51.070;16.998;2023-07-08T04:02:10;18.30;99.90
2907;DHT22;1463;51.070;16.998;2023-07-08T04:04:38;18.30;99.90
2907;DHT22;1463;51.070;16.998;2023-07-08T04:07:05;18.30;99.90
2907;DHT22;1463;51.070;16.998;2023-07-08T04:09:33;18.30;99.90
2907;DHT22;1463;51.070;16.998;2023-07-08T04:12:00;18.30;99.90
2907;DHT22;1463;51.070;16.998;2023-07-08T04:14:28;18.30;99.90
2907;DHT22;1463;51.070;16.998;2023-07-08T04:16:58;18.30;99.90
2907;DHT22;1463;51.070;16.998;2023-07-08T04:19:26;18.50;99.90
2907;DHT22;1463;51.070;16.998;2023-07-08T04:21:54;18.50;99.90
2907;DHT22;1463;51.070;16.998;2023-07-08T04:24:21;18.50;99.90
2907;DHT22;1463;51.070;16.998;2023-07-08T04:26:49;18.50;99.90
2907;DHT22;1463;51.070;16.998;2023-07-08T04:29:19;18.60;99.90
2907;DHT22;1463;51.070;16.998;2023-07-08T04:31:47;18.70;99.90
2907;DHT22;1463;51.070;16.998;2023-07-08T04:34:16;18.70;99.90
2907;DHT22;1463;51.070;16.998;2023-07-08T04:36:44;18.70;99.90
2907;DHT22;1463;51.070;16.998;2023-07-08T04:39:12;18.60;99.90
2907;DHT22;1463;51.070;16.998;2023-07-08T04:41:41;18.60;99.90
2907;DHT22;1463;51.070;16.998;2023-07-08T04:44:09;18.70;99.90
2907;DHT22;1463;51.070;16.998;2023-07-08T04:46:40;18.80;99.90
2907;DHT22;1463;51.070;16.998;2023-07-08T04:49:08;18.80;99.90
2907;DHT22;1463;51.070;16.998;2023-07-08T04:51:38;18.90;99.90
2907;DHT22;1463;51.070;16.998;2023-07-08T04:54:05;18.90;99.90
2907;DHT22;1463;51.070;16.998;2023-07-08T04:56:37;19.00;99.90
2907;DHT22;1463;51.070;16.998;2023-07-08T04:59:07;19.00;99.90
2907;DHT22;1463;51.070;16.998;2023-07-08T05:01:35;18.90;99.90
2907;DHT22;1463;51.070;16.998;2023-07-08T05:04:03;19.00;99.90
2907;DHT22;1463;51.070;16.998;2023-07-08T05:06:32;19.00;99.90
2907;DHT22;1463;51.070;16.998;2023-07-08T05:09:01;19.10;99.90
2907;DHT22;1463;51.070;16.998;2023-07-08T05:11:29;19.20;99.90
2907;DHT22;1463;51.070;16.998;2023-07-08T05:13:57;19.30;99.90
2907;DHT22;1463;51.070;16.998;2023-07-08T05:16:25;19.30;99.90
2907;DHT22;1463;51.070;16.998;2023-07-08T05:18:52;19.40;99.90
2907;DHT22;1463;51.070;16.998;2023-07-08T05:21:21;19.40;99.90
2907;DHT22;1463;51.070;16.998;2023-07-08T05:23:48;19.60;99.90
2907;DHT22;1463;51.070;16.998;2023-07-08T05:26:18;19.70;99.90
2907;DHT22;1463;51.070;16.998;2023-07-08T05:28:45;19.80;99.90
2907;DHT22;1463;51.070;16.998;2023-07-08T05:31:13;19.80;99.90
2907;DHT22;1463;51.070;16.998;2023-07-08T05:33:40;19.90;99.90
2907;DHT22;1463;51.070;16.998;2023-07-08T05:36:08;20.00;99.90
2907;DHT22;1463;51.070;16.998;2023-07-08T05:38:35;20.00;99.90
2907;DHT22;1463;51.070;16.998;2023-07-08T05:41:03;20.00;99.90
2907;DHT22;1463;51.070;16.998;2023-07-08T05:43:32;19.90;99.90
2907;DHT22;1463;51.070;16.998;2023-07-08T05:45:59;20.00;99.90
2907;DHT22;1463;51.070;16.998;2023-07-08T05:48:27;20.00;99.90
2907;DHT22;1463;51.070;16.998;2023-07-08T05:50:56;20.10;99.90
2907;DHT22;1463;51.070;16.998;2023-07-08T05:53:24;20.10;99.90
2907;DHT22;1463;51.070;16.998;2023-07-08T05:55:51;20.10;99.90
2907;DHT22;1463;51.070;16.998;2023-07-08T05:58:19;20.20;99.90
2907;DHT22;1463;51.070;16.998;2023-07-08T06:00:55;20.40;99.90
2907;DHT22;1463;51.070;16.998;2023-07-08T06:03:23;20.40;99.90
2907;DHT22;1463;51.070;16.998;2023-07-08T06:05:51;20.50;99.90
2907;DHT22;1463;51.070;16.998;2023-07-08T06:08:18;20.50;99.90
2907;DHT22;1463;51.070;16.998;2023-07-08T06:10:46;20.60;99.90
2907;DHT22;1463;51.070;16.998;2023-07-08T06:13:14;20.60;99.90
2907;DHT22;1463;51.070;16.998;2023-07-08T06:15:42;20.70;99.90
2907;DHT22;1463;51.070;16.998;2023-07-08T06:18:10;20.70;99.90
2907;DHT22;1463;51.070;16.998;2023-07-08T06:20:38;20.70;99.90
2907;DHT22;1463;51.070;16.998;2023-07-08T06:23:05;20.90;99.90
2907;DHT22;1463;51.070;16.998;2023-07-08T06:25:33;21.10;99.90
2907;DHT22;1463;51.070;16.998;2023-07-08T06:28:00;21.20;99.90
2907;DHT22;1463;51.070;16.998;2023-07-08T06:30:28;21.30;99.90
2907;DHT22;1463;51.070;16.998;2023-07-08T06:32:55;21.30;99.90
2907;DHT22;1463;51.070;16.998;2023-07-08T06:35:24;21.40;99.90
2907;DHT22;1463;51.070;16.998;2023-07-08T06:37:51;21.60;99.90
2907;DHT22;1463;51.070;16.998;2023-07-08T06:40:19;21.60;99.90
2907;DHT22;1463;51.070;16.998;2023-07-08T06:42:46;21.70;99.90
2907;DHT22;1463;51.070;16.998;2023-07-08T06:45:14;21.90;99.90
2907;DHT22;1463;51.070;16.998;2023-07-08T06:47:42;22.00;99.90
2907;DHT22;1463;51.070;16.998;2023-07-08T06:50:09;22.00;99.90
2907;DHT22;1463;51.070;16.998;2023-07-08T06:52:38;22.00;99.90
2907;DHT22;1463;51.070;16.998;2023-07-08T06:55:08;22.20;99.90
2907;DHT22;1463;51.070;16.998;2023-07-08T06:57:36;22.20;99.90
2907;DHT22;1463;51.070;16.998;2023-07-08T07:00:06;22.30;99.90
2907;DHT22;1463;51.070;16.998;2023-07-08T07:02:34;22.30;99.90
2907;DHT22;1463;51.070;16.998;2023-07-08T07:05:01;22.40;99.90
2907;DHT22;1463;51.070;16.998;2023-07-08T07:07:29;22.50;99.90
2907;DHT22;1463;51.070;16.998;2023-07-08T07:09:58;22.60;99.90
2907;DHT22;1463;51.070;16.998;2023-07-08T07:12:26;22.70;99.90
2907;DHT22;1463;51.070;16.998;2023-07-08T07:14:54;22.70;99.90
2907;DHT22;1463;51.070;16.998;2023-07-08T07:17:22;22.80;99.90
2907;DHT22;1463;51.070;16.998;2023-07-08T07:19:50;22.90;99.90
2907;DHT22;1463;51.070;16.998;2023-07-08T07:22:17;23.00;99.90
2907;DHT22;1463;51.070;16.998;2023-07-08T07:24:44;23.00;99.90
2907;DHT22;1463;51.070;16.998;2023-07-08T07:27:13;23.10;99.90
2907;DHT22;1463;51.070;16.998;2023-07-08T07:29:42;23.20;99.90
2907;DHT22;1463;51.070;16.998;2023-07-08T07:32:11;23.30;99.90
2907;DHT22;1463;51.070;16.998;2023-07-08T07:34:38;23.30;99.90
2907;DHT22;1463;51.070;16.998;2023-07-08T07:37:11;23.40;99.90
2907;DHT22;1463;51.070;16.998;2023-07-08T07:39:39;23.50;99.90
2907;DHT22;1463;51.070;16.998;2023-07-08T07:42:07;23.50;99.10
2907;DHT22;1463;51.070;16.998;2023-07-08T07:44:37;23.60;98.80
2907;DHT22;1463;51.070;16.998;2023-07-08T07:47:06;23.70;98.70
2907;DHT22;1463;51.070;16.998;2023-07-08T07:49:34;23.80;97.40
2907;DHT22;1463;51.070;16.998;2023-07-08T07:52:02;23.80;97.20
2907;DHT22;1463;51.070;16.998;2023-07-08T07:54:30;24.00;96.30
2907;DHT22;1463;51.070;16.998;2023-07-08T07:56:58;24.10;96.20
2907;DHT22;1463;51.070;16.998;2023-07-08T07:59:25;24.20;94.60
2907;DHT22;1463;51.070;16.998;2023-07-08T08:01:54;24.20;95.40
2907;DHT22;1463;51.070;16.998;2023-07-08T08:04:22;24.30;96.00
2907;DHT22;1463;51.070;16.998;2023-07-08T08:06:49;24.40;94.60
2907;DHT22;1463;51.070;16.998;2023-07-08T08:09:16;24.50;95.20
2907;DHT22;1463;51.070;16.998;2023-07-08T08:11:44;24.60;95.30
2907;DHT22;1463;51.070;16.998;2023-07-08T08:14:11;24.80;94.10
2907;DHT22;1463;51.070;16.998;2023-07-08T08:16:39;24.90;94.30
2907;DHT22;1463;51.070;16.998;2023-07-08T08:19:08;25.00;92.50
2907;DHT22;1463;51.070;16.998;2023-07-08T08:21:35;25.10;93.20
2907;DHT22;1463;51.070;16.998;2023-07-08T08:24:03;25.20;92.50
2907;DHT22;1463;51.070;16.998;2023-07-08T08:26:31;25.20;91.40
2907;DHT22;1463;51.070;16.998;2023-07-08T08:28:58;25.30;90.80
2907;DHT22;1463;51.070;16.998;2023-07-08T08:31:26;25.40;90.00
2907;DHT22;1463;51.070;16.998;2023-07-08T08:33:54;25.40;86.40
2907;DHT22;1463;51.070;16.998;2023-07-08T08:36:23;25.50;82.20
2907;DHT22;1463;51.070;16.998;2023-07-08T08:38:50;25.50;82.00
2907;DHT22;1463;51.070;16.998;2023-07-08T08:41:19;25.60;80.20
2907;DHT22;1463;51.070;16.998;2023-07-08T08:43:48;25.70;76.90
2907;DHT22;1463;51.070;16.998;2023-07-08T08:46:23;25.80;76.60
2907;DHT22;1463;51.070;16.998;2023-07-08T08:48:56;25.80;75.20
2907;DHT22;1463;51.070;16.998;2023-07-08T08:51:28;26.00;75.30
2907;DHT22;1463;51.070;16.998;2023-07-08T08:53:58;26.10;74.20
2907;DHT22;1463;51.070;16.998;2023-07-08T08:56:28;26.20;70.40
2907;DHT22;1463;51.070;16.998;2023-07-08T08:59:01;26.30;70.30
2907;DHT22;1463;51.070;16.998;2023-07-08T09:01:31;26.40;69.50
2907;DHT22;1463;51.070;16.998;2023-07-08T09:04:02;26.40;69.40
2907;DHT22;1463;51.070;16.998;2023-07-08T09:06:34;26.40;68.80
2907;DHT22;1463;51.070;16.998;2023-07-08T09:09:03;26.40;70.00
2907;DHT22;1463;51.070;16.998;2023-07-08T09:11:42;26.50;64.70
2907;DHT22;1463;51.070;16.998;2023-07-08T09:14:15;26.50;67.00
2907;DHT22;1463;51.070;16.998;2023-07-08T09:16:49;26.70;67.20
2907;DHT22;1463;51.070;16.998;2023-07-08T09:19:23;26.70;66.50
2907;DHT22;1463;51.070;16.998;2023-07-08T09:21:57;26.80;65.20
2907;DHT22;1463;51.070;16.998;2023-07-08T09:24:32;27.00;64.70
2907;DHT22;1463;51.070;16.998;2023-07-08T09:27:01;27.00;63.00
2907;DHT22;1463;51.070;16.998;2023-07-08T09:29:29;27.10;62.00
2907;DHT22;1463;51.070;16.998;2023-07-08T09:31:57;27.10;61.30
2907;DHT22;1463;51.070;16.998;2023-07-08T09:34:37;27.20;61.30
2907;DHT22;1463;51.070;16.998;2023-07-08T09:37:23;27.30;61.50
2907;DHT22;1463;51.070;16.998;2023-07-08T09:39:52;27.40;60.40
2907;DHT22;1463;51.070;16.998;2023-07-08T09:42:21;27.50;59.10
2907;DHT22;1463;51.070;16.998;2023-07-08T09:44:55;27.40;60.00
2907;DHT22;1463;51.070;16.998;2023-07-08T09:47:25;27.60;62.00
2907;DHT22;1463;51.070;16.998;2023-07-08T09:49:54;27.70;59.90
2907;DHT22;1463;51.070;16.998;2023-07-08T09:52:23;27.70;62.70
2907;DHT22;1463;51.070;16.998;2023-07-08T09:54:50;27.70;63.10
2907;DHT22;1463;51.070;16.998;2023-07-08T09:57:25;27.70;62.90
2907;DHT22;1463;51.070;16.998;2023-07-08T09:59:57;27.70;63.30
2907;DHT22;1463;51.070;16.998;2023-07-08T10:02:31;27.70;63.70
2907;DHT22;1463;51.070;16.998;2023-07-08T10:05:02;27.80;63.20
2907;DHT22;1463;51.070;16.998;2023-07-08T10:07:33;27.80;60.80
2907;DHT22;1463;51.070;16.998;2023-07-08T10:10:06;27.80;63.10
2907;DHT22;1463;51.070;16.998;2023-07-08T10:12:38;27.80;61.70
2907;DHT22;1463;51.070;16.998;2023-07-08T10:15:15;27.80;62.20
2907;DHT22;1463;51.070;16.998;2023-07-08T10:17:44;27.80;62.60
2907;DHT22;1463;51.070;16.998;2023-07-08T10:20:13;27.90;62.60
2907;DHT22;1463;51.070;16.998;2023-07-08T10:22:53;28.10;60.80
2907;DHT22;1463;51.070;16.998;2023-07-08T10:25:27;28.20;62.80
2907;DHT22;1463;51.070;16.998;2023-07-08T10:28:01;28.20;60.40
2907;DHT22;1463;51.070;16.998;2023-07-08T10:30:38;28.30;60.50
2907;DHT22;1463;51.070;16.998;2023-07-08T10:33:31;28.20;59.80
2907;DHT22;1463;51.070;16.998;2023-07-08T10:36:18;28.30;59.50
2907;DHT22;1463;51.070;16.998;2023-07-08T10:39:12;28.30;58.70
2907;DHT22;1463;51.070;16.998;2023-07-08T10:41:47;28.40;59.00
2907;DHT22;1463;51.070;16.998;2023-07-08T10:44:24;28.50;58.70
2907;DHT22;1463;51.070;16.998;2023-07-08T10:47:00;28.50;59.10
2907;DHT22;1463;51.070;16.998;2023-07-08T10:49:46;28.50;59.40
2907;DHT22;1463;51.070;16.998;2023-07-08T10:52:31;28.50;59.20
2907;DHT22;1463;51.070;16.998;2023-07-08T10:55:13;28.50;57.70
2907;DHT22;1463;51.070;16.998;2023-07-08T11:00:45;28.60;57.00
2907;DHT22;1463;51.070;16.998;2023-07-08T11:06:24;28.70;58.10
2907;DHT22;1463;51.070;16.998;2023-07-08T11:08:55;28.70;58.30
2907;DHT22;1463;51.070;16.998;2023-07-08T11:11:33;28.80;58.60
2907;DHT22;1463;51.070;16.998;2023-07-08T11:14:08;28.90;58.30
2907;DHT22;1463;51.070;16.998;2023-07-08T11:16:40;28.90;57.90
2907;DHT22;1463;51.070;16.998;2023-07-08T11:19:15;28.90;57.80
2907;DHT22;1463;51.070;16.998;2023-07-08T11:21:45;29.00;57.80
2907;DHT22;1463;51.070;16.998;2023-07-08T11:24:19;29.10;56.80
2907;DHT22;1463;51.070;16.998;2023-07-08T11:26:52;29.00;56.50
2907;DHT22;1463;51.070;16.998;2023-07-08T11:29:23;29.10;56.00
2907;DHT22;1463;51.070;16.998;2023-07-08T11:31:52;29.10;56.10
2907;DHT22;1463;51.070;16.998;2023-07-08T11:34:21;29.10;54.40
2907;DHT22;1463;51.070;16.998;2023-07-08T11:36:49;29.10;56.30
2907;DHT22;1463;51.070;16.998;2023-07-08T11:39:27;29.20;54.70
2907;DHT22;1463;51.070;16.998;2023-07-08T11:42:16;29.40;55.30
2907;DHT22;1463;51.070;16.998;2023-07-08T11:44:46;29.50;54.20
2907;DHT22;1463;51.070;16.998;2023-07-08T11:47:20;29.50;53.90
2907;DHT22;1463;51.070;16.998;2023-07-08T11:49:50;29.60;53.40
2907;DHT22;1463;51.070;16.998;2023-07-08T11:52:20;29.70;55.00
2907;DHT22;1463;51.070;16.998;2023-07-08T11:54:56;29.70;55.00
2907;DHT22;1463;51.070;16.998;2023-07-08T11:57:29;29.80;54.40
2907;DHT22;1463;51.070;16.998;2023-07-08T12:00:15;29.80;53.40
2907;DHT22;1463;51.070;16.998;2023-07-08T12:02:52;29.90;52.80
2907;DHT22;1463;51.070;16.998;2023-07-08T12:05:33;29.90;53.50
2907;DHT22;1463;51.070;16.998;2023-07-08T12:08:02;30.00;53.00
2907;DHT22;1463;51.070;16.998;2023-07-08T12:10:34;30.00;53.10
2907;DHT22;1463;51.070;16.998;2023-07-08T12:13:09;30.10;52.50
2907;DHT22;1463;51.070;16.998;2023-07-08T12:15:38;30.00;51.60
2907;DHT22;1463;51.070;16.998;2023-07-08T12:18:12;30.00;51.60
2907;DHT22;1463;51.070;16.998;2023-07-08T12:20:42;30.00;52.10
2907;DHT22;1463;51.070;16.998;2023-07-08T12:23:13;30.10;52.00
2907;DHT22;1463;51.070;16.998;2023-07-08T12:25:41;30.10;51.80
2907;DHT22;1463;51.070;16.998;2023-07-08T12:28:10;30.20;51.40
2907;DHT22;1463;51.070;16.998;2023-07-08T12:30:39;30.10;52.00
2907;DHT22;1463;51.070;16.998;2023-07-08T12:33:12;30.10;51.20
2907;DHT22;1463;51.070;16.998;2023-07-08T12:35:41;30.10;51.60
2907;DHT22;1463;51.070;16.998;2023-07-08T12:38:27;30.00;51.60
2907;DHT22;1463;51.070;16.998;2023-07-08T12:40:56;30.10;51.70
2907;DHT22;1463;51.070;16.998;2023-07-08T12:43:25;30.10;51.20
2907;DHT22;1463;51.070;16.998;2023-07-08T12:45:53;30.10;49.80
2907;DHT22;1463;51.070;16.998;2023-07-08T12:48:20;30.10;51.30
2907;DHT22;1463;51.070;16.998;2023-07-08T12:50:48;30.20;52.70
2907;DHT22;1463;51.070;16.998;2023-07-08T12:53:16;30.10;51.50
2907;DHT22;1463;51.070;16.998;2023-07-08T12:55:44;30.10;50.40
2907;DHT22;1463;51.070;16.998;2023-07-08T12:58:13;30.00;50.70
2907;DHT22;1463;51.070;16.998;2023-07-08T13:00:43;30.00;50.90
2907;DHT22;1463;51.070;16.998;2023-07-08T13:03:14;30.00;48.90
2907;DHT22;1463;51.070;16.998;2023-07-08T13:05:43;30.00;50.10
2907;DHT22;1463;51.070;16.998;2023-07-08T13:08:12;30.10;49.90
2907;DHT22;1463;51.070;16.998;2023-07-08T13:10:40;30.00;50.10
2907;DHT22;1463;51.070;16.998;2023-07-08T13:13:12;29.90;50.40
2907;DHT22;1463;51.070;16.998;2023-07-08T13:15:42;29.90;50.20
2907;DHT22;1463;51.070;16.998;2023-07-08T13:18:15;29.90;50.00
2907;DHT22;1463;51.070;16.998;2023-07-08T13:20:45;29.80;49.80
2907;DHT22;1463;51.070;16.998;2023-07-08T13:23:14;29.90;48.90
2907;DHT22;1463;51.070;16.998;2023-07-08T13:25:42;29.90;48.70
2907;DHT22;1463;51.070;16.998;2023-07-08T13:28:16;29.90;49.50
2907;DHT22;1463;51.070;16.998;2023-07-08T13:30:52;29.90;48.40
2907;DHT22;1463;51.070;16.998;2023-07-08T13:33:20;29.90;49.00
2907;DHT22;1463;51.070;16.998;2023-07-08T13:35:48;29.90;48.50
2907;DHT22;1463;51.070;16.998;2023-07-08T13:38:19;29.90;49.30
2907;DHT22;1463;51.070;16.998;2023-07-08T13:40:52;29.90;49.50
2907;DHT22;1463;51.070;16.998;2023-07-08T13:43:23;29.90;49.30
2907;DHT22;1463;51.070;16.998;2023-07-08T13:45:54;29.90;50.30
2907;DHT22;1463;51.070;16.998;2023-07-08T13:48:26;29.90;49.10
2907;DHT22;1463;51.070;16.998;2023-07-08T13:50:57;30.00;50.00
2907;DHT22;1463;51.070;16.998;2023-07-08T13:53:26;30.00;50.30
2907;DHT22;1463;51.070;16.998;2023-07-08T13:55:59;30.10;50.60
2907;DHT22;1463;51.070;16.998;2023-07-08T13:58:29;30.20;48.80
2907;DHT22;1463;51.070;16.998;2023-07-08T14:00:58;30.30;48.80
2907;DHT22;1463;51.070;16.998;2023-07-08T14:03:26;30.30;49.20
2907;DHT22;1463;51.070;16.998;2023-07-08T14:05:53;30.40;48.40
2907;DHT22;1463;51.070;16.998;2023-07-08T14:08:21;30.40;48.50
2907;DHT22;1463;51.070;16.998;2023-07-08T14:10:49;30.40;48.60
2907;DHT22;1463;51.070;16.998;2023-07-08T14:13:16;30.30;49.50
2907;DHT22;1463;51.070;16.998;2023-07-08T14:15:44;30.30;49.70
2907;DHT22;1463;51.070;16.998;2023-07-08T14:18:14;30.40;49.80
2907;DHT22;1463;51.070;16.998;2023-07-08T14:20:41;30.40;48.50
2907;DHT22;1463;51.070;16.998;2023-07-08T14:23:10;30.40;48.60
2907;DHT22;1463;51.070;16.998;2023-07-08T14:25:39;30.40;47.80
2907;DHT22;1463;51.070;16.998;2023-07-08T14:28:07;30.40;48.30
2907;DHT22;1463;51.070;16.998;2023-07-08T14:30:39;30.40;48.20
2907;DHT22;1463;51.070;16.998;2023-07-08T14:33:10;30.40;48.20
2907;DHT22;1463;51.070;16.998;2023-07-08T14:35:40;30.40;49.00
2907;DHT22;1463;51.070;16.998;2023-07-08T14:38:10;30.40;48.50
2907;DHT22;1463;51.070;16.998;2023-07-08T14:40:40;30.30;48.20
2907;DHT22;1463;51.070;16.998;2023-07-08T14:43:13;30.30;48.10
2907;DHT22;1463;51.070;16.998;2023-07-08T14:45:47;30.20;47.60
2907;DHT22;1463;51.070;16.998;2023-07-08T14:48:15;30.30;48.50
2907;DHT22;1463;51.070;16.998;2023-07-08T14:50:44;30.30;48.20
2907;DHT22;1463;51.070;16.998;2023-07-08T14:53:13;30.40;47.80
2907;DHT22;1463;51.070;16.998;2023-07-08T14:55:43;30.40;46.70
2907;DHT22;1463;51.070;16.998;2023-07-08T14:58:19;30.30;46.70
2907;DHT22;1463;51.070;16.998;2023-07-08T15:00:48;30.20;47.20
2907;DHT22;1463;51.070;16.998;2023-07-08T15:03:15;30.20;47.20
2907;DHT22;1463;51.070;16.998;2023-07-08T15:05:44;30.20;47.50
2907;DHT22;1463;51.070;16.998;2023-07-08T15:08:11;30.20;47.90
2907;DHT22;1463;51.070;16.998;2023-07-08T15:10:43;30.20;48.30
2907;DHT22;1463;51.070;16.998;2023-07-08T15:13:11;30.10;49.90
2907;DHT22;1463;51.070;16.998;2023-07-08T15:15:38;29.90;50.30
2907;DHT22;1463;51.070;16.998;2023-07-08T15:18:11;29.80;48.80
2907;DHT22;1463;51.070;16.998;2023-07-08T15:20:39;29.80;48.90
2907;DHT22;1463;51.070;16.998;2023-07-08T15:23:10;29.70;49.80
2907;DHT22;1463;51.070;16.998;2023-07-08T15:25:40;29.60;50.60
2907;DHT22;1463;51.070;16.998;2023-07-08T15:28:14;29.50;51.20
2907;DHT22;1463;51.070;16.998;2023-07-08T15:30:42;29.40;51.80
2907;DHT22;1463;51.070;16.998;2023-07-08T15:33:11;29.30;51.30
2907;DHT22;1463;51.070;16.998;2023-07-08T15:35:40;29.20;51.40
2907;DHT22;1463;51.070;16.998;2023-07-08T15:38:09;29.20;51.20
2907;DHT22;1463;51.070;16.998;2023-07-08T15:40:38;29.30;50.90
2907;DHT22;1463;51.070;16.998;2023-07-08T15:43:12;29.30;49.90
2907;DHT22;1463;51.070;16.998;2023-07-08T15:45:41;29.40;51.20
2907;DHT22;1463;51.070;16.998;2023-07-08T15:48:12;29.30;50.80
2907;DHT22;1463;51.070;16.998;2023-07-08T15:50:40;29.30;51.30
2907;DHT22;1463;51.070;16.998;2023-07-08T15:53:10;29.30;51.20
2907;DHT22;1463;51.070;16.998;2023-07-08T15:55:39;29.30;50.70
2907;DHT22;1463;51.070;16.998;2023-07-08T15:58:12;29.20;50.20
2907;DHT22;1463;51.070;16.998;2023-07-08T16:00:40;29.20;51.50
2907;DHT22;1463;51.070;16.998;2023-07-08T16:03:12;29.20;50.60
2907;DHT22;1463;51.070;16.998;2023-07-08T16:05:40;29.20;50.30
2907;DHT22;1463;51.070;16.998;2023-07-08T16:08:10;29.20;50.00